Time;durP1;ratioP1;P1;durP2;ratioP2;P2;SDS_P1;SDS_P2;PMS_P1;PMS_P2;Temp;Humidity;BMP_temperature;BMP_pressure;BME280_temperature;BME280_humidity;BME280_pressure;Samples;Min_cycle;Max_cycle;Signal;HPM_P1;HPM_P2
2021/07/13 00:02:13;;;;;;;;;;;;;;;;;;5014372;28;1393;-84
2021/07/13 00:04:38;;;;;;;;;;;;;;;;;;5014427;28;914;-83
2021/07/13 00:07:12;;;;;;;;;;;;;;;;;;5013651;28;1457;-83
2021/07/13 00:09:37;;;;;;;;;;;;;;;;;;5045551;23;1968;-83
2021/07/13 00:12:03;;;;;;;;;;;;;;;;;;5035040;28;1104;-84
2021/07/13 00:14:29;;;;;;;;;;;;;;;;;;5035879;28;840;-84
2021/07/13 00:17:06;;;;;;;;;;;;;;;;;;5034759;28;1200;-84
2021/07/13 00:19:31;;;;;;;;;;;;;;;;;;5034625;28;1200;-83
2021/07/13 00:22:11;;;;;;;;;;;;;;;;;;5034722;28;1282;-83
2021/07/13 00:24:49;;;;;;;;;;;;;;;;;;5034710;28;1246;-83
2021/07/13 00:27:23;;;;;;;;;;;;;;;;;;5035884;28;949;-83
2021/07/13 00:29:48;;;;;;;;;;;;;;;;;;5034590;28;1910;-83
2021/07/13 00:32:14;;;;;;;;;;;;;;;;;;5034780;28;1234;-84
2021/07/13 00:37:43;;;;;;;;;;;;;;;;;;4994487;28;1100;-82
2021/07/13 00:40:28;;;;;;;;;;;;;;;;;;4994325;28;977;-83
2021/07/13 00:42:54;;;;;;;;;;;;;;;;;;4978051;28;1377;-83
2021/07/13 00:45:21;;;;;;;;;;;;;;;;;;4977941;28;1268;-83
2021/07/13 00:47:46;;;;;;;;;;;;;;;;;;4994540;28;941;-83
2021/07/13 00:52:58;;;;;;;;;;;;;;;;;;4994259;28;1194;-83
2021/07/13 00:55:24;;;;;;;;;;;;;;;;;;5010983;28;1228;-83
2021/07/13 01:00:33;;;;;;;;;;;;;;;;;;5013778;28;1060;-83
2021/07/13 01:03:01;;;;;;;;;;;;;;;;;;5014318;28;870;-83
2021/07/13 01:08:10;;;;;;;;;;;;;;;;;;5017409;28;1226;-83
2021/07/13 01:10:35;;;;;;;;;;;;;;;;;;5017451;28;1977;-82
2021/07/13 01:13:14;;;;;;;;;;;;;;;;;;5031028;28;1279;-83
2021/07/13 01:15:39;;;;;;;;;;;;;;;;;;5054783;28;1210;-83
2021/07/13 01:20:34;;;;;;;;;;;;;;;;;;5039458;28;820;-83
2021/07/13 01:26:01;;;;;;;;;;;;;;;;;;5038931;28;605;-83
2021/07/13 01:28:26;;;;;;;;;;;;;;;;;;5038973;28;882;-82
2021/07/13 01:31:01;;;;;;;;;;;;;;;;;;5038950;28;1953;-82
2021/07/13 01:36:04;;;;;;;;;;;;;;;;;;5044500;28;879;-82
2021/07/13 01:38:35;;;;;;;;;;;;;;;;;;5037553;28;1393;-82
2021/07/13 01:41:00;;;;;;;;;;;;;;;;;;5037466;28;1328;-83
2021/07/13 01:43:26;;;;;;;;;;;;;;;;;;5039001;28;973;-84
2021/07/13 01:48:45;;;;;;;;;;;;;;;;;;5024275;28;1135;-83
2021/07/13 01:51:11;;;;;;;;;;;;;;;;;;5017359;28;1957;-83
2021/07/13 01:53:37;;;;;;;;;;;;;;;;;;5016933;28;1312;-83
2021/07/13 01:56:15;;;;;;;;;;;;;;;;;;5016644;28;1159;-83
2021/07/13 01:58:41;;;;;;;;;;;;;;;;;;5050375;28;1274;-83
2021/07/13 02:01:25;;;;;;;;;;;;;;;;;;5028787;28;1248;-84
2021/07/13 02:06:35;;;;;;;;;;;;;;;;;;5016435;28;953;-83
2021/07/13 02:09:00;;;;;;;;;;;;;;;;;;5014507;28;1194;-83
2021/07/13 02:11:36;;;;;;;;;;;;;;;;;;5016306;28;1981;-83
2021/07/13 02:14:02;;;;;;;;;;;;;;;;;;5016349;28;910;-83
2021/07/13 02:16:28;;;;;;;;;;;;;;;;;;4999102;28;1137;-83
2021/07/13 02:18:53;;;;;;;;;;;;;;;;;;4999876;28;1202;-83
2021/07/13 02:24:02;;;;;;;;;;;;;;;;;;5016319;28;598;-83
2021/07/13 02:26:27;;;;;;;;;;;;;;;;;;5035787;28;962;-83
2021/07/13 02:31:22;;;;;;;;;;;;;;;;;;5038121;28;1866;-83
2021/07/13 02:34:04;;;;;;;;;;;;;;;;;;5036606;28;1182;-83
2021/07/13 02:36:30;;;;;;;;;;;;;;;;;;5037884;28;853;-83
2021/07/13 02:39:10;;;;;;;;;;;;;;;;;;5036510;28;1254;-83
2021/07/13 02:41:46;;;;;;;;;;;;;;;;;;5036374;28;1289;-83
2021/07/13 02:44:18;;;;;;;;;;;;;;;;;;5036438;28;1251;-83
2021/07/13 02:46:44;;;;;;;;;;;;;;;;;;5036404;28;1269;-83
2021/07/13 02:49:25;;;;;;;;;;;;;;;;;;5036276;28;1247;-83
2021/07/13 02:57:28;;;;;;;;;;;;;;;;;;5037398;28;610;-84
2021/07/13 03:00:14;;;;;;;;;;;;;;;;;;5036116;28;1057;-84
2021/07/13 03:05:31;;;;;;;;;;;;;;;;;;5035322;28;1069;-83
2021/07/13 03:07:58;;;;;;;;;;;;;;;;;;5018568;28;1222;-83
2021/07/13 03:10:23;;;;;;;;;;;;;;;;;;5017465;28;1910;-83
2021/07/13 03:12:48;;;;;;;;;;;;;;;;;;5015711;28;1188;-84
2021/07/13 03:18:07;;;;;;;;;;;;;;;;;;5017731;28;916;-84
2021/07/13 03:20:46;;;;;;;;;;;;;;;;;;5034978;28;909;-84
2021/07/13 03:23:13;;;;;;;;;;;;;;;;;;5018308;28;1238;-83
2021/07/13 03:25:50;;;;;;;;;;;;;;;;;;5016436;28;1182;-83
2021/07/13 03:28:16;;;;;;;;;;;;;;;;;;5015111;28;1262;-83
2021/07/13 03:30:51;;;;;;;;;;;;;;;;;;5034673;28;1886;-83
2021/07/13 03:36:16;;;;;;;;;;;;;;;;;;5034759;28;930;-83
2021/07/13 03:38:51;;;;;;;;;;;;;;;;;;5017932;28;1389;-84
2021/07/13 03:41:22;;;;;;;;;;;;;;;;;;5017946;28;1196;-83
2021/07/13 03:43:54;;;;;;;;;;;;;;;;;;5035180;28;1166;-83
2021/07/13 03:49:02;;;;;;;;;;;;;;;;;;5036294;28;1003;-82
2021/07/13 03:51:44;;;;;;;;;;;;;;;;;;5035137;28;1878;-83
2021/07/13 03:54:09;;;;;;;;;;;;;;;;;;5035187;28;1168;-83
2021/07/13 03:56:35;;;;;;;;;;;;;;;;;;5034879;28;1362;-83
2021/07/13 03:59:16;;;;;;;;;;;;;;;;;;5035624;28;932;-83
2021/07/13 04:01:56;;;;;;;;;;;;;;;;;;5036273;28;1288;-82
2021/07/13 04:04:33;;;;;;;;;;;;;;;;;;5033957;28;1207;-82
2021/07/13 04:07:17;;;;;;;;;;;;;;;;;;5034965;28;1282;-83
2021/07/13 04:09:43;;;;;;;;;;;;;;;;;;5034585;28;1478;-83
2021/07/13 04:12:09;;;;;;;;;;;;;;;;;;5035833;28;1911;-83
2021/07/13 04:14:35;;;;;;;;;;;;;;;;;;5034433;28;1238;-83
2021/07/13 04:20:00;;;;;;;;;;;;;;;;;;4994666;28;975;-83
2021/07/13 04:25:41;;;;;;;;;;;;;;;;;;4955620;29;971;-83
2021/07/13 04:28:18;;;;;;;;;;;;;;;;;;4955849;29;1178;-83
2021/07/13 04:30:52;;;;;;;;;;;;;;;;;;4955590;29;1944;-81
2021/07/13 04:33:35;;;;;;;;;;;;;;;;;;4956013;29;902;-81
2021/07/13 04:36:16;;;;;;;;;;;;;;;;;;4955906;29;1078;-80
2021/07/13 04:41:24;;;;;;;;;;;;;;;;;;4959578;28;1239;-81
2021/07/13 04:43:50;;;;;;;;;;;;;;;;;;4959608;29;1069;-81
2021/07/13 04:46:35;;;;;;;;;;;;;;;;;;4959417;29;1186;-81
2021/07/13 04:49:09;;;;;;;;;;;;;;;;;;4959827;29;1082;-81
2021/07/13 04:54:18;;;;;;;;;;;;;;;;;;4959547;28;1201;-80
2021/07/13 04:56:52;;;;;;;;;;;;;;;;;;4981588;28;1276;-80
2021/07/13 04:59:27;;;;;;;;;;;;;;;;;;4998119;28;914;-81
2021/07/13 05:04:49;;;;;;;;;;;;;;;;;;4998052;28;1007;-81
2021/07/13 05:09:57;;;;;;;;;;;;;;;;;;5001162;28;1915;-82
2021/07/13 05:12:34;;;;;;;;;;;;;;;;;;4978393;28;1279;-82
2021/07/13 05:15:01;;;;;;;;;;;;;;;;;;4978219;28;1322;-82
2021/07/13 05:20:10;;;;;;;;;;;;;;;;;;4985959;28;1502;-81
2021/07/13 05:22:57;;;;;;;;;;;;;;;;;;4994646;28;1214;-83
2021/07/13 05:28:10;;;;;;;;;;;;;;;;;;4997716;28;932;-90
2021/07/13 05:30:40;;;;;;;;;;;;;;;;;;4979141;28;1895;-87
2021/07/13 05:33:05;;;;;;;;;;;;;;;;;;4989079;28;1553;-86
2021/07/13 05:43:55;;;;;;;;;;;;;;;;;;5038723;28;606;-79
2021/07/13 05:46:30;;;;;;;;;;;;;;;;;;5037407;28;1278;-79
2021/07/13 05:48:56;;;;;;;;;;;;;;;;;;5036990;28;1298;-82
2021/07/13 05:51:28;;;;;;;;;;;;;;;;;;5035937;28;1906;-82
2021/07/13 05:54:13;;;;;;;;;;;;;;;;;;5036367;28;1195;-81
2021/07/13 05:56:39;;;;;;;;;;;;;;;;;;5037075;28;1285;-81
2021/07/13 05:59:13;;;;;;;;;;;;;;;;;;5038307;28;1012;-82
2021/07/13 06:01:50;;;;;;;;;;;;;;;;;;5036855;28;1281;-81
2021/07/13 06:04:16;;;;;;;;;;;;;;;;;;5038434;28;878;-82
2021/07/13 06:06:43;;;;;;;;;;;;;;;;;;5036706;28;1185;-81
2021/07/13 06:09:08;;;;;;;;;;;;;;;;;;5032102;28;1168;-81
2021/07/13 06:11:33;;;;;;;;;;;;;;;;;;5045820;28;1906;-82
2021/07/13 06:14:06;;;;;;;;;;;;;;;;;;5056680;28;1316;-82
2021/07/13 06:16:39;;;;;;;;;;;;;;;;;;5056892;28;1232;-81
2021/07/13 06:19:04;;;;;;;;;;;;;;;;;;5037823;28;1276;-81
2021/07/13 06:21:35;;;;;;;;;;;;;;;;;;5037218;28;1262;-81
2021/07/13 06:24:00;;;;;;;;;;;;;;;;;;5036803;28;1092;-81
2021/07/13 06:26:34;;;;;;;;;;;;;;;;;;5036712;28;1301;-81
2021/07/13 06:29:01;;;;;;;;;;;;;;;;;;5036749;28;1365;-81
2021/07/13 06:31:27;;;;;;;;;;;;;;;;;;5037773;28;1949;-82
2021/07/13 06:33:58;;;;;;;;;;;;;;;;;;5036546;28;1223;-81
2021/07/13 06:36:32;;;;;;;;;;;;;;;;;;5036572;28;1216;-82
2021/07/13 06:38:58;;;;;;;;;;;;;;;;;;5037864;28;921;-81
2021/07/13 06:41:29;;;;;;;;;;;;;;;;;;5036978;28;1011;-81
2021/07/13 06:46:49;;;;;;;;;;;;;;;;;;5035747;28;953;-81
2021/07/13 06:49:14;;;;;;;;;;;;;;;;;;5018816;28;1192;-81
2021/07/13 06:51:39;;;;;;;;;;;;;;;;;;5035496;28;1944;-81
2021/07/13 06:54:17;;;;;;;;;;;;;;;;;;5018732;28;1204;-81
2021/07/13 06:56:51;;;;;;;;;;;;;;;;;;5035417;28;949;-81
2021/07/13 06:59:29;;;;;;;;;;;;;;;;;;5018586;28;1169;-80
2021/07/13 07:01:56;;;;;;;;;;;;;;;;;;5027797;28;1172;-80
2021/07/13 07:04:23;;;;;;;;;;;;;;;;;;4995724;28;1196;-80
2021/07/13 07:06:49;;;;;;;;;;;;;;;;;;5006251;28;1212;-80
2021/07/13 07:09:14;;;;;;;;;;;;;;;;;;4997271;28;1200;-82
2021/07/13 07:11:39;;;;;;;;;;;;;;;;;;4995499;28;1982;-82
2021/07/13 07:14:06;;;;;;;;;;;;;;;;;;4995713;28;990;-82
2021/07/13 07:16:32;;;;;;;;;;;;;;;;;;4998511;28;1295;-82
2021/07/13 07:21:41;;;;;;;;;;;;;;;;;;5034996;28;1102;-80
2021/07/13 07:24:19;;;;;;;;;;;;;;;;;;5027788;28;1329;-79
2021/07/13 07:29:37;;;;;;;;;;;;;;;;;;4995221;28;967;-79
2021/07/13 07:32:03;;;;;;;;;;;;;;;;;;5009925;28;1879;-80
2021/07/13 07:34:29;;;;;;;;;;;;;;;;;;5013547;28;1278;-79
2021/07/13 07:37:09;;;;;;;;;;;;;;;;;;5014583;28;1188;-81
2021/07/13 07:39:37;;;;;;;;;;;;;;;;;;5014610;28;1236;-80
2021/07/13 07:42:03;;;;;;;;;;;;;;;;;;5014525;28;1361;-81
2021/07/13 07:44:37;;;;;;;;;;;;;;;;;;5014647;28;957;-82
2021/07/13 07:47:04;;;;;;;;;;;;;;;;;;5014311;28;981;-80
2021/07/13 07:49:30;;;;;;;;;;;;;;;;;;5014283;28;1272;-79
2021/07/13 07:51:57;;;;;;;;;;;;;;;;;;5014653;28;1936;-82
2021/07/13 07:54:23;;;;;;;;;;;;;;;;;;5014478;28;1137;-82
2021/07/13 07:59:32;;;;;;;;;;;;;;;;;;5010279;28;986;-83
2021/07/13 08:01:58;;;;;;;;;;;;;;;;;;5014451;28;1322;-80
2021/07/13 08:04:25;;;;;;;;;;;;;;;;;;5014264;28;949;-81
2021/07/13 08:06:53;;;;;;;;;;;;;;;;;;5016720;28;2217;-81
2021/07/13 08:09:18;;;;;;;;;;;;;;;;;;5051418;28;1319;-82
2021/07/13 08:11:43;;;;;;;;;;;;;;;;;;5051353;28;1914;-82
2021/07/13 08:14:09;;;;;;;;;;;;;;;;;;5050396;28;1359;-81
2021/07/13 08:16:49;;;;;;;;;;;;;;;;;;5034871;28;1401;-80
2021/07/13 08:22:17;;;;;;;;;;;;;;;;;;5035992;28;673;-87
2021/07/13 08:27:33;;;;;;;;;;;;;;;;;;5035876;28;650;-82
2021/07/13 08:32:27;;;;;;;;;;;;;;;;;;5035596;28;891;-82
2021/07/13 08:37:51;;;;;;;;;;;;;;;;;;5012018;28;1144;-82
2021/07/13 08:40:25;;;;;;;;;;;;;;;;;;4996534;28;1286;-83
2021/07/13 08:42:59;;;;;;;;;;;;;;;;;;5013949;28;981;-82
2021/07/13 08:45:34;;;;;;;;;;;;;;;;;;4997680;28;1255;-81
2021/07/13 08:48:02;;;;;;;;;;;;;;;;;;4997477;28;1186;-82
2021/07/13 08:50:27;;;;;;;;;;;;;;;;;;4997447;28;1887;-82
2021/07/13 08:52:53;;;;;;;;;;;;;;;;;;4997447;28;1186;-82
2021/07/13 08:55:19;;;;;;;;;;;;;;;;;;4997454;28;1384;-82
2021/07/13 08:57:45;;;;;;;;;;;;;;;;;;4997573;28;1196;-83
2021/07/13 09:00:20;;;;;;;;;;;;;;;;;;5013963;28;1020;-83
2021/07/13 09:02:55;;;;;;;;;;;;;;;;;;4995858;28;1319;-82
2021/07/13 09:05:21;;;;;;;;;;;;;;;;;;4992382;28;1199;-82
2021/07/13 09:07:55;;;;;;;;;;;;;;;;;;4995982;28;1432;-82
2021/07/13 09:10:20;;;;;;;;;;;;;;;;;;4992864;28;1911;-82
2021/07/13 09:12:46;;;;;;;;;;;;;;;;;;4977771;28;1225;-84
2021/07/13 09:15:27;;;;;;;;;;;;;;;;;;5011330;28;1248;-80
2021/07/13 09:17:55;;;;;;;;;;;;;;;;;;5014499;28;1299;-81
2021/07/13 09:20:28;;;;;;;;;;;;;;;;;;5015375;28;1133;-82
2021/07/13 09:28:33;;;;;;;;;;;;;;;;;;4997232;28;1074;-80
2021/07/13 09:31:08;;;;;;;;;;;;;;;;;;4980918;28;1887;-80
2021/07/13 09:33:34;;;;;;;;;;;;;;;;;;4980971;28;1200;-81
2021/07/13 09:35:59;;;;;;;;;;;;;;;;;;4980834;28;1326;-80
2021/07/13 09:38:25;;;;;;;;;;;;;;;;;;4980919;28;1231;-80
2021/07/13 09:40:59;;;;;;;;;;;;;;;;;;4997266;28;897;-80
2021/07/13 09:43:27;;;;;;;;;;;;;;;;;;4980782;28;1181;-80
2021/07/13 09:45:53;;;;;;;;;;;;;;;;;;4997159;28;934;-80
2021/07/13 09:48:19;;;;;;;;;;;;;;;;;;4997119;28;986;-80
2021/07/13 09:50:46;;;;;;;;;;;;;;;;;;4980481;28;1883;-81
2021/07/13 09:53:15;;;;;;;;;;;;;;;;;;4980632;28;1246;-81
2021/07/13 09:55:49;;;;;;;;;;;;;;;;;;4980611;28;1290;-80
2021/07/13 09:58:16;;;;;;;;;;;;;;;;;;4980591;28;1288;-80
2021/07/13 10:00:51;;;;;;;;;;;;;;;;;;4980481;28;1260;-80
2021/07/13 10:03:17;;;;;;;;;;;;;;;;;;4996834;28;858;-80
2021/07/13 10:05:45;;;;;;;;;;;;;;;;;;5010420;28;1224;-80
2021/07/13 10:08:10;;;;;;;;;;;;;;;;;;5017042;28;1332;-80
2021/07/13 10:10:35;;;;;;;;;;;;;;;;;;5018053;28;1911;-80
2021/07/13 10:13:06;;;;;;;;;;;;;;;;;;5018203;28;776;-80
2021/07/13 10:15:44;;;;;;;;;;;;;;;;;;5022412;28;1189;-81
2021/07/13 10:18:09;;;;;;;;;;;;;;;;;;5056768;28;1300;-83
2021/07/13 10:20:45;;;;;;;;;;;;;;;;;;5056894;28;1225;-84
2021/07/13 10:23:10;;;;;;;;;;;;;;;;;;5056694;28;1266;-83
2021/07/13 10:25:54;;;;;;;;;;;;;;;;;;5046691;28;1827;-84
2021/07/13 10:28:19;;;;;;;;;;;;;;;;;;5036773;28;1351;-83
2021/07/13 10:36:48;;;;;;;;;;;;;;;;;;5015333;28;941;-83
2021/07/13 10:41:56;;;;;;;;;;;;;;;;;;5015913;28;618;-83
2021/07/13 10:44:22;;;;;;;;;;;;;;;;;;5015829;28;911;-83
2021/07/13 10:46:49;;;;;;;;;;;;;;;;;;4999399;28;1290;-83
2021/07/13 10:49:16;;;;;;;;;;;;;;;;;;4999329;28;1209;-83
2021/07/13 10:51:59;;;;;;;;;;;;;;;;;;4999493;28;1883;-83
2021/07/13 10:54:25;;;;;;;;;;;;;;;;;;4999328;28;1212;-83
2021/07/13 10:56:50;;;;;;;;;;;;;;;;;;5015771;28;951;-83
2021/07/13 10:59:24;;;;;;;;;;;;;;;;;;5015780;28;1009;-83
2021/07/13 11:01:49;;;;;;;;;;;;;;;;;;4999083;28;1236;-83
2021/07/13 11:04:25;;;;;;;;;;;;;;;;;;4999115;28;1377;-83
2021/07/13 11:06:53;;;;;;;;;;;;;;;;;;5015598;28;885;-83
2021/07/13 11:14:46;;;;;;;;;;;;;;;;;;5026914;28;1072;-84
2021/07/13 11:17:11;;;;;;;;;;;;;;;;;;5035514;28;1254;-85
2021/07/13 11:19:50;;;;;;;;;;;;;;;;;;5035847;28;1207;-86
2021/07/13 11:22:16;;;;;;;;;;;;;;;;;;5035705;28;1258;-86
2021/07/13 11:24:56;;;;;;;;;;;;;;;;;;5035742;28;1316;-86
2021/07/13 11:27:23;;;;;;;;;;;;;;;;;;5036483;28;815;-81
2021/07/13 11:29:51;;;;;;;;;;;;;;;;;;5035440;28;1213;-81
2021/07/13 11:32:16;;;;;;;;;;;;;;;;;;5035239;28;1968;-82
2021/07/13 11:42:22;;;;;;;;;;;;;;;;;;5036760;28;819;-82
2021/07/13 11:44:54;;;;;;;;;;;;;;;;;;5036254;28;1068;-81
2021/07/13 11:47:29;;;;;;;;;;;;;;;;;;5035570;28;897;-79
2021/07/13 11:50:05;;;;;;;;;;;;;;;;;;5034914;28;1349;-80
2021/07/13 11:52:30;;;;;;;;;;;;;;;;;;5035057;28;1212;-81
2021/07/13 11:57:34;;;;;;;;;;;;;;;;;;5036363;28;878;-81
2021/07/13 12:00:06;;;;;;;;;;;;;;;;;;5034783;28;1313;-81
2021/07/13 12:02:38;;;;;;;;;;;;;;;;;;5035979;28;830;-82
2021/07/13 12:05:03;;;;;;;;;;;;;;;;;;5036243;28;850;-80
2021/07/13 12:07:34;;;;;;;;;;;;;;;;;;5035834;28;965;-80
2021/07/13 12:09:59;;;;;;;;;;;;;;;;;;5036111;28;830;-80
2021/07/13 12:12:26;;;;;;;;;;;;;;;;;;5034662;28;1945;-80
2021/07/13 12:14:51;;;;;;;;;;;;;;;;;;5034424;28;1182;-80
2021/07/13 12:17:17;;;;;;;;;;;;;;;;;;5035705;28;874;-79
2021/07/13 12:19:45;;;;;;;;;;;;;;;;;;5035917;28;977;-80
2021/07/13 12:22:16;;;;;;;;;;;;;;;;;;5034560;28;1291;-80
2021/07/13 12:24:47;;;;;;;;;;;;;;;;;;5034657;28;1337;-80
2021/07/13 12:27:19;;;;;;;;;;;;;;;;;;5034591;28;1381;-81
2021/07/13 12:29:57;;;;;;;;;;;;;;;;;;5034521;28;1194;-80
2021/07/13 12:32:22;;;;;;;;;;;;;;;;;;5034330;28;1965;-82
2021/07/13 12:34:49;;;;;;;;;;;;;;;;;;5034613;28;1305;-81
2021/07/13 12:37:15;;;;;;;;;;;;;;;;;;5035209;28;1235;-82
2021/07/13 12:39:41;;;;;;;;;;;;;;;;;;5034580;28;1282;-82
2021/07/13 12:42:09;;;;;;;;;;;;;;;;;;5035596;28;897;-82
2021/07/13 12:44:34;;;;;;;;;;;;;;;;;;5034559;28;1179;-82
2021/07/13 12:47:01;;;;;;;;;;;;;;;;;;5034448;28;1314;-82
2021/07/13 12:49:28;;;;;;;;;;;;;;;;;;5035606;28;952;-82
2021/07/13 12:52:01;;;;;;;;;;;;;;;;;;5034368;28;1933;-81
2021/07/13 12:54:34;;;;;;;;;;;;;;;;;;5034409;28;1484;-81
2021/07/13 12:57:01;;;;;;;;;;;;;;;;;;5035541;28;886;-81
2021/07/13 12:59:27;;;;;;;;;;;;;;;;;;5035440;28;1186;-84
2021/07/13 13:01:59;;;;;;;;;;;;;;;;;;5038516;28;1288;-84
2021/07/13 13:07:28;;;;;;;;;;;;;;;;;;5037535;28;1029;-84
2021/07/13 13:12:46;;;;;;;;;;;;;;;;;;4978586;28;1043;-82
2021/07/13 13:15:11;;;;;;;;;;;;;;;;;;4958635;28;1367;-83
2021/07/13 13:20:45;;;;;;;;;;;;;;;;;;4937428;29;1029;-80
2021/07/13 13:23:12;;;;;;;;;;;;;;;;;;4939363;29;1210;-79
2021/07/13 13:25:51;;;;;;;;;;;;;;;;;;4939663;29;1224;-83
2021/07/13 13:31:02;;;;;;;;;;;;;;;;;;4939431;29;1903;-80
2021/07/13 13:33:38;;;;;;;;;;;;;;;;;;4939460;29;1213;-82
2021/07/13 13:47:17;;;;;;;;;;;;;;;;;;4958220;29;1303;-83
2021/07/13 13:49:57;;;;;;;;;;;;;;;;;;4970468;28;1509;-82
2021/07/13 13:52:24;;;;;;;;;;;;;;;;;;4980239;28;1887;-79
2021/07/13 13:54:58;;;;;;;;;;;;;;;;;;4996974;28;1373;-79
2021/07/13 13:57:34;;;;;;;;;;;;;;;;;;5037765;28;877;-81
2021/07/13 13:59:59;;;;;;;;;;;;;;;;;;5036859;28;1640;-81
2021/07/13 14:02:26;;;;;;;;;;;;;;;;;;5038203;28;1227;-81
2021/07/13 14:05:00;;;;;;;;;;;;;;;;;;5038272;28;902;-80
2021/07/13 14:07:25;;;;;;;;;;;;;;;;;;5038229;28;847;-81
2021/07/13 14:09:57;;;;;;;;;;;;;;;;;;5038251;28;918;-81
2021/07/13 14:12:24;;;;;;;;;;;;;;;;;;5037096;28;1957;-81
2021/07/13 14:14:54;;;;;;;;;;;;;;;;;;5036503;28;1319;-81
2021/07/13 14:17:21;;;;;;;;;;;;;;;;;;5037911;28;913;-81
2021/07/13 14:19:52;;;;;;;;;;;;;;;;;;5036810;28;1159;-81
2021/07/13 14:25:10;;;;;;;;;;;;;;;;;;5034469;28;960;-80
2021/07/13 14:27:36;;;;;;;;;;;;;;;;;;5035150;28;950;-80
2021/07/13 14:30:09;;;;;;;;;;;;;;;;;;5035752;28;1319;-80
2021/07/13 14:32:34;;;;;;;;;;;;;;;;;;5035894;28;1898;-81
2021/07/13 14:35:08;;;;;;;;;;;;;;;;;;5035597;28;1321;-81
2021/07/13 14:37:35;;;;;;;;;;;;;;;;;;5035680;28;834;-81
2021/07/13 14:40:02;;;;;;;;;;;;;;;;;;5035703;28;1153;-81
2021/07/13 14:42:29;;;;;;;;;;;;;;;;;;5035762;28;946;-81
2021/07/13 14:45:05;;;;;;;;;;;;;;;;;;5035510;28;1253;-81
2021/07/13 14:47:32;;;;;;;;;;;;;;;;;;5035641;28;881;-80
2021/07/13 14:52:53;;;;;;;;;;;;;;;;;;4976694;28;967;-81
2021/07/13 14:55:20;;;;;;;;;;;;;;;;;;4976390;28;1028;-81
2021/07/13 14:57:56;;;;;;;;;;;;;;;;;;4976386;28;1388;-81
2021/07/13 15:00:24;;;;;;;;;;;;;;;;;;4976520;28;1339;-81
2021/07/13 15:02:58;;;;;;;;;;;;;;;;;;4945979;28;1190;-81
2021/07/13 15:05:23;;;;;;;;;;;;;;;;;;4957193;28;1398;-81
2021/07/13 15:07:56;;;;;;;;;;;;;;;;;;4957081;28;1440;-81
2021/07/13 15:10:30;;;;;;;;;;;;;;;;;;4957085;28;1891;-82
2021/07/13 15:13:11;;;;;;;;;;;;;;;;;;4957201;29;894;-81
2021/07/13 15:15:36;;;;;;;;;;;;;;;;;;4956649;28;1268;-81
2021/07/13 15:18:01;;;;;;;;;;;;;;;;;;4956817;28;1231;-80
2021/07/13 15:20:27;;;;;;;;;;;;;;;;;;4956868;29;990;-81
2021/07/13 15:22:53;;;;;;;;;;;;;;;;;;4956762;28;1213;-81
2021/07/13 15:25:19;;;;;;;;;;;;;;;;;;4956551;28;1350;-81
2021/07/13 15:30:37;;;;;;;;;;;;;;;;;;5007597;28;1898;-81
2021/07/13 15:33:15;;;;;;;;;;;;;;;;;;5015894;28;1262;-81
2021/07/13 15:35:42;;;;;;;;;;;;;;;;;;5017071;28;866;-81
2021/07/13 15:38:08;;;;;;;;;;;;;;;;;;5017115;28;926;-81
2021/07/13 15:40:36;;;;;;;;;;;;;;;;;;5016856;28;941;-81
2021/07/13 15:43:01;;;;;;;;;;;;;;;;;;5015630;28;1304;-81
2021/07/13 15:45:28;;;;;;;;;;;;;;;;;;5015586;28;1168;-81
2021/07/13 15:47:55;;;;;;;;;;;;;;;;;;5015437;28;1293;-81
2021/07/13 15:50:21;;;;;;;;;;;;;;;;;;5015419;28;1936;-81
2021/07/13 15:52:46;;;;;;;;;;;;;;;;;;5015396;28;1167;-81
2021/07/13 15:55:14;;;;;;;;;;;;;;;;;;5018207;28;1017;-81
2021/07/13 15:57:45;;;;;;;;;;;;;;;;;;5015314;28;1385;-81
2021/07/13 16:00:29;;;;;;;;;;;;;;;;;;5048591;28;1378;-81
2021/07/13 16:02:56;;;;;;;;;;;;;;;;;;5034312;28;1202;-81
2021/07/13 16:05:34;;;;;;;;;;;;;;;;;;5034273;28;1197;-81
2021/07/13 16:08:00;;;;;;;;;;;;;;;;;;5036353;28;803;-82
2021/07/13 16:10:27;;;;;;;;;;;;;;;;;;5036131;28;1858;-81
2021/07/13 16:12:54;;;;;;;;;;;;;;;;;;5034931;28;1229;-81
2021/07/13 16:15:19;;;;;;;;;;;;;;;;;;5036108;28;1137;-81
2021/07/13 16:17:45;;;;;;;;;;;;;;;;;;5036056;28;799;-81
2021/07/13 16:20:13;;;;;;;;;;;;;;;;;;5036074;28;1114;-81
2021/07/13 16:22:38;;;;;;;;;;;;;;;;;;5034584;28;1209;-81
2021/07/13 16:30:35;;;;;;;;;;;;;;;;;;5033968;28;2029;-82
2021/07/13 16:33:01;;;;;;;;;;;;;;;;;;5017368;28;1204;-81
2021/07/13 16:35:40;;;;;;;;;;;;;;;;;;5016803;28;1278;-81
2021/07/13 16:38:14;;;;;;;;;;;;;;;;;;5017125;28;1369;-81
2021/07/13 16:40:50;;;;;;;;;;;;;;;;;;5031963;28;1007;-81
2021/07/13 16:43:30;;;;;;;;;;;;;;;;;;5031935;28;957;-81
2021/07/13 16:45:57;;;;;;;;;;;;;;;;;;5017373;28;1199;-82
2021/07/13 16:48:23;;;;;;;;;;;;;;;;;;5017272;28;1240;-81
2021/07/13 16:50:48;;;;;;;;;;;;;;;;;;5016958;28;1882;-81
2021/07/13 16:53:22;;;;;;;;;;;;;;;;;;5016963;28;1200;-81
2021/07/13 16:55:50;;;;;;;;;;;;;;;;;;5033790;28;882;-82
2021/07/13 16:58:16;;;;;;;;;;;;;;;;;;5017021;28;1377;-81
2021/07/13 17:00:42;;;;;;;;;;;;;;;;;;5017072;28;1211;-81
2021/07/13 17:03:08;;;;;;;;;;;;;;;;;;5017104;28;1370;-82
2021/07/13 17:05:43;;;;;;;;;;;;;;;;;;5033753;28;969;-81
2021/07/13 17:11:05;;;;;;;;;;;;;;;;;;5013602;28;1926;-83
2021/07/13 17:13:36;;;;;;;;;;;;;;;;;;5010532;28;1177;-83
2021/07/13 17:16:01;;;;;;;;;;;;;;;;;;4974839;28;1246;-83
2021/07/13 17:18:26;;;;;;;;;;;;;;;;;;4974807;28;910;-83
2021/07/13 17:21:05;;;;;;;;;;;;;;;;;;4974747;28;1259;-84
2021/07/13 17:23:41;;;;;;;;;;;;;;;;;;4974633;28;1234;-83
2021/07/13 17:26:21;;;;;;;;;;;;;;;;;;4974598;28;1275;-84
2021/07/13 17:28:47;;;;;;;;;;;;;;;;;;4974852;28;959;-83
2021/07/13 17:31:21;;;;;;;;;;;;;;;;;;4974490;28;1898;-84
2021/07/13 17:33:47;;;;;;;;;;;;;;;;;;4974472;28;1152;-84
2021/07/13 17:36:15;;;;;;;;;;;;;;;;;;4974471;28;1175;-84
2021/07/13 17:38:40;;;;;;;;;;;;;;;;;;4974382;28;1333;-83
2021/07/13 17:41:05;;;;;;;;;;;;;;;;;;4974288;28;1200;-84
2021/07/13 17:43:31;;;;;;;;;;;;;;;;;;4973008;28;1316;-83
2021/07/13 17:46:06;;;;;;;;;;;;;;;;;;4975757;28;1358;-84
2021/07/13 17:48:32;;;;;;;;;;;;;;;;;;4997063;28;1283;-84
2021/07/13 17:53:36;;;;;;;;;;;;;;;;;;4999811;28;839;-83
2021/07/13 17:56:08;;;;;;;;;;;;;;;;;;4998117;28;1473;-83
2021/07/13 17:58:34;;;;;;;;;;;;;;;;;;4998010;28;1334;-83
2021/07/13 18:00:59;;;;;;;;;;;;;;;;;;4997702;28;1357;-84
2021/07/13 18:03:31;;;;;;;;;;;;;;;;;;4998146;28;1321;-84
2021/07/13 18:05:57;;;;;;;;;;;;;;;;;;4999086;28;910;-84
2021/07/13 18:08:24;;;;;;;;;;;;;;;;;;4997829;28;1317;-84
2021/07/13 18:11:02;;;;;;;;;;;;;;;;;;4997673;28;1878;-84
2021/07/13 18:13:36;;;;;;;;;;;;;;;;;;4997599;28;1229;-83
2021/07/13 18:16:01;;;;;;;;;;;;;;;;;;5036826;28;1313;-84
2021/07/13 18:18:27;;;;;;;;;;;;;;;;;;5038173;28;1063;-84
2021/07/13 18:20:54;;;;;;;;;;;;;;;;;;5038289;28;934;-85
2021/07/13 18:23:20;;;;;;;;;;;;;;;;;;5037117;28;1174;-84
2021/07/13 18:25:47;;;;;;;;;;;;;;;;;;5038440;28;980;-84
2021/07/13 18:30:41;;;;;;;;;;;;;;;;;;5038280;28;1910;-83
2021/07/13 18:33:12;;;;;;;;;;;;;;;;;;5036657;28;1347;-84
2021/07/13 18:35:49;;;;;;;;;;;;;;;;;;5036731;28;1288;-84
2021/07/13 18:38:22;;;;;;;;;;;;;;;;;;5036735;28;1236;-84
2021/07/13 18:43:19;;;;;;;;;;;;;;;;;;5037687;28;1047;-85
2021/07/13 18:45:44;;;;;;;;;;;;;;;;;;5036563;28;1174;-84
2021/07/13 18:48:12;;;;;;;;;;;;;;;;;;5036459;28;1181;-83
2021/07/13 18:50:39;;;;;;;;;;;;;;;;;;5036288;28;1949;-84
2021/07/13 18:53:04;;;;;;;;;;;;;;;;;;5035651;28;1161;-84
2021/07/13 18:55:39;;;;;;;;;;;;;;;;;;5016741;28;1319;-84
2021/07/13 18:58:04;;;;;;;;;;;;;;;;;;5047419;28;1305;-84
2021/07/13 19:00:44;;;;;;;;;;;;;;;;;;5037453;28;984;-84
2021/07/13 19:03:16;;;;;;;;;;;;;;;;;;5036225;28;1240;-84
2021/07/13 19:05:45;;;;;;;;;;;;;;;;;;5036062;28;1171;-84
2021/07/13 19:08:16;;;;;;;;;;;;;;;;;;5036145;28;1239;-84
2021/07/13 19:10:44;;;;;;;;;;;;;;;;;;5037398;28;1882;-84
2021/07/13 19:13:16;;;;;;;;;;;;;;;;;;5036028;28;1253;-83
2021/07/13 19:15:41;;;;;;;;;;;;;;;;;;5036885;28;1153;-84
2021/07/13 19:18:07;;;;;;;;;;;;;;;;;;5034097;28;1210;-84
2021/07/13 19:20:41;;;;;;;;;;;;;;;;;;5035597;28;1278;-83
2021/07/13 19:23:08;;;;;;;;;;;;;;;;;;5033301;28;1266;-83
2021/07/13 19:25:42;;;;;;;;;;;;;;;;;;5020660;28;997;-82
2021/07/13 19:28:23;;;;;;;;;;;;;;;;;;5016093;28;1314;-82
2021/07/13 19:30:50;;;;;;;;;;;;;;;;;;5015799;28;1903;-83
2021/07/13 19:33:42;;;;;;;;;;;;;;;;;;5015784;28;1296;-82
2021/07/13 19:44:58;;;;;;;;;;;;;;;;;;4995292;28;1124;-82
2021/07/13 19:47:25;;;;;;;;;;;;;;;;;;4995141;28;1292;-82
2021/07/13 19:49:50;;;;;;;;;;;;;;;;;;4993435;28;1440;-82
2021/07/13 19:52:17;;;;;;;;;;;;;;;;;;4995079;28;1882;-82
2021/07/13 19:54:44;;;;;;;;;;;;;;;;;;4995007;28;1165;-83
2021/07/13 19:57:18;;;;;;;;;;;;;;;;;;4995043;28;1357;-83
2021/07/13 19:59:43;;;;;;;;;;;;;;;;;;4995083;28;957;-83
2021/07/13 20:02:27;;;;;;;;;;;;;;;;;;4994960;28;1213;-83
2021/07/13 20:05:01;;;;;;;;;;;;;;;;;;4995029;28;969;-84
2021/07/13 20:07:38;;;;;;;;;;;;;;;;;;4993243;28;1213;-83
2021/07/13 20:10:03;;;;;;;;;;;;;;;;;;4994081;28;865;-83
2021/07/13 20:12:30;;;;;;;;;;;;;;;;;;4985703;28;1882;-82
2021/07/13 20:14:55;;;;;;;;;;;;;;;;;;4975089;28;1467;-83
2021/07/13 20:17:37;;;;;;;;;;;;;;;;;;4975381;28;795;-83
2021/07/13 20:25:25;;;;;;;;;;;;;;;;;;5034559;28;840;-83
2021/07/13 20:30:53;;;;;;;;;;;;;;;;;;5034123;28;1910;-83
2021/07/13 20:33:18;;;;;;;;;;;;;;;;;;5017407;28;1184;-83
2021/07/13 20:35:44;;;;;;;;;;;;;;;;;;5032222;28;1051;-83
2021/07/13 20:38:21;;;;;;;;;;;;;;;;;;5032390;28;965;-82
2021/07/13 20:41:02;;;;;;;;;;;;;;;;;;5033784;28;946;-83